createdAt,value
2017-02-27T00:00:09.291Z,53.4
2017-02-27T00:00:23.861Z,53.5
2017-02-27T00:00:38.433Z,53.31
2017-02-27T00:00:52.997Z,53.4
2017-02-27T00:01:07.559Z,53.5
2017-02-27T00:01:22.117Z,53.59
2017-02-27T00:01:36.699Z,53.31
2017-02-27T00:01:51.254Z,53.21
2017-02-27T00:02:05.785Z,53.31
2017-02-27T00:02:20.365Z,53.4
2017-02-27T00:02:34.912Z,53.5
2017-02-27T00:02:50.776Z,53.69
2017-02-27T00:03:05.353Z,53.98
2017-02-27T00:03:20.138Z,53.78
2017-02-27T00:03:34.712Z,53.5
2017-02-27T00:03:49.306Z,53.78
2017-02-27T00:04:03.862Z,53.98
2017-02-27T00:04:18.457Z,54.17
2017-02-27T00:04:33.026Z,53.88
2017-02-27T00:04:47.551Z,54.08
2017-02-27T00:05:02.150Z,54.17
2017-02-27T00:05:16.742Z,54.17
2017-02-27T00:05:31.373Z,54.08
2017-02-27T00:05:45.949Z,53.98
2017-02-27T00:06:00.550Z,53.88
2017-02-27T00:06:15.088Z,53.78
2017-02-27T00:06:29.653Z,54.08
2017-02-27T00:06:44.180Z,53.78
2017-02-27T00:06:58.772Z,53.78
2017-02-27T00:07:13.416Z,53.72
2017-02-27T00:07:27.980Z,53.88
2017-02-27T00:07:42.552Z,53.78
2017-02-27T00:07:57.127Z,53.59
2017-02-27T00:08:11.691Z,53.43
2017-02-27T00:08:26.339Z,53.59
2017-02-27T00:08:40.920Z,53.4
2017-02-27T00:08:55.472Z,53.62
2017-02-27T00:09:10.082Z,53.69
2017-02-27T00:09:24.648Z,53.91
2017-02-27T00:09:39.182Z,53.78
2017-02-27T00:09:53.752Z,53.81
2017-02-27T00:10:08.320Z,54.1
2017-02-27T00:10:22.916Z,54.08
2017-02-27T00:10:37.526Z,54.1
2017-02-27T00:10:52.140Z,53.88
2017-02-27T00:11:06.714Z,54
2017-02-27T00:11:21.253Z,54.08
2017-02-27T00:11:35.833Z,54.08
2017-02-27T00:11:50.487Z,53.88
2017-02-27T00:12:05.088Z,54
2017-02-27T00:12:19.640Z,53.88
2017-02-27T00:12:34.215Z,54.08
2017-02-27T00:12:48.810Z,53.88
2017-02-27T00:13:03.399Z,53.91
2017-02-27T00:13:17.994Z,53.98
2017-02-27T00:13:32.567Z,53.78
2017-02-27T00:13:47.113Z,53.81
2017-02-27T00:14:01.646Z,53.62
2017-02-27T00:14:16.194Z,53.59
2017-02-27T00:14:30.790Z,53.78
2017-02-27T00:14:45.342Z,54.2
2017-02-27T00:14:59.940Z,54.46
2017-02-27T00:15:14.532Z,54.56
2017-02-27T00:15:29.113Z,54.36
2017-02-27T00:15:43.624Z,54.87
2017-02-27T00:15:58.222Z,54.97
2017-02-27T00:16:12.763Z,54.85
2017-02-27T00:16:27.288Z,54.49
2017-02-27T00:16:41.862Z,54.3
2017-02-27T00:16:56.531Z,54.56
2017-02-27T00:17:11.103Z,54.68
2017-02-27T00:17:25.719Z,54.97
2017-02-27T00:17:40.241Z,54.78
2017-02-27T00:17:54.886Z,55.07
2017-02-27T00:18:09.452Z,54.97
2017-02-27T00:18:24.210Z,55.07
2017-02-27T00:18:38.839Z,54.97
2017-02-27T00:18:53.465Z,54.87
2017-02-27T00:19:08.045Z,54.97
2017-02-27T00:19:22.593Z,54.87
2017-02-27T00:19:37.220Z,55.55
2017-02-27T00:19:51.861Z,55.35
2017-02-27T00:20:06.498Z,55.35
2017-02-27T00:20:21.051Z,55.26
2017-02-27T00:20:35.581Z,55.35
2017-02-27T00:20:50.112Z,55.45
2017-02-27T00:21:04.657Z,56.12
2017-02-27T00:21:19.285Z,56.51
2017-02-27T00:21:33.844Z,56.8
2017-02-27T00:21:48.425Z,56.8
2017-02-27T00:22:03.028Z,57.18
2017-02-27T00:22:17.581Z,57.28
2017-02-27T00:22:32.151Z,57.67
2017-02-27T00:22:46.751Z,57.86
2017-02-27T00:23:01.292Z,57.86
2017-02-27T00:23:15.853Z,57.95
2017-02-27T00:23:30.515Z,58.02
2017-02-27T00:23:45.048Z,58.15
2017-02-27T00:23:59.621Z,58.05
2017-02-27T00:24:14.206Z,57.86
2017-02-27T00:24:28.770Z,57.76
2017-02-27T00:24:43.325Z,57.67
2017-02-27T00:24:57.892Z,57.25
2017-02-27T00:25:12.455Z,57.09
2017-02-27T00:25:27.041Z,57.28
2017-02-27T00:25:41.590Z,56.8
2017-02-27T00:25:56.161Z,56.7
2017-02-27T00:26:10.767Z,56.7
2017-02-27T00:26:25.303Z,56.99
2017-02-27T00:26:39.843Z,57.09
2017-02-27T00:26:54.438Z,57.09
2017-02-27T00:27:09.049Z,57.28
2017-02-27T00:27:23.616Z,57.18
2017-02-27T00:27:38.110Z,57.28
2017-02-27T00:27:52.714Z,57.28
2017-02-27T00:28:07.320Z,57.95
2017-02-27T00:28:21.872Z,57.18
2017-02-27T00:28:36.446Z,57.37
2017-02-27T00:28:51.029Z,57.28
2017-02-27T00:29:05.629Z,57.28
2017-02-27T00:29:20.208Z,57.09
2017-02-27T00:29:34.810Z,57.28
2017-02-27T00:29:49.459Z,56.7
2017-02-27T00:30:04.054Z,56.9
2017-02-27T00:30:18.620Z,57.18
2017-02-27T00:30:33.161Z,56.7
2017-02-27T00:30:47.752Z,57.09
2017-02-27T00:31:02.332Z,56.9
2017-02-27T00:31:16.866Z,56.8
2017-02-27T00:31:31.427Z,56.6
2017-02-27T00:31:45.977Z,57.18
2017-02-27T00:32:00.545Z,56.9
2017-02-27T00:32:15.169Z,57.06
2017-02-27T00:32:29.747Z,57.18
2017-02-27T00:32:44.363Z,56.9
2017-02-27T00:32:58.945Z,56.87
2017-02-27T00:33:13.526Z,57.09
2017-02-27T00:33:28.253Z,56.7
2017-02-27T00:33:42.823Z,57.09
2017-02-27T00:33:57.440Z,56.99
2017-02-27T00:34:12.040Z,57.09
2017-02-27T00:34:26.630Z,57.06
2017-02-27T00:34:41.145Z,56.7
2017-02-27T00:34:55.699Z,56.7
2017-02-27T00:35:10.317Z,56.8
2017-02-27T00:35:24.883Z,56.9
2017-02-27T00:35:39.449Z,56.9
2017-02-27T00:35:54.055Z,57.09
2017-02-27T00:36:08.558Z,57.06
2017-02-27T00:36:23.097Z,56.99
2017-02-27T00:36:37.639Z,56.6
2017-02-27T00:36:52.259Z,56.9
2017-02-27T00:37:06.847Z,56.77
2017-02-27T00:37:21.417Z,56.51
2017-02-27T00:37:36.005Z,56.87
2017-02-27T00:37:50.562Z,56.99
2017-02-27T00:38:05.128Z,56.7
2017-02-27T00:38:19.709Z,56.9
2017-02-27T00:38:34.296Z,56.9
2017-02-27T00:38:48.908Z,56.77
2017-02-27T00:39:03.548Z,56.6
2017-02-27T00:39:18.153Z,56.67
2017-02-27T00:39:32.710Z,56.7
2017-02-27T00:39:47.272Z,56.87
2017-02-27T00:40:01.839Z,56.99
2017-02-27T00:40:16.395Z,57.06
2017-02-27T00:40:30.963Z,56.58
2017-02-27T00:40:45.550Z,56.9
2017-02-27T00:41:00.159Z,56.67
2017-02-27T00:41:14.761Z,56.77
2017-02-27T00:41:29.327Z,56.8
2017-02-27T00:41:43.922Z,57.18
2017-02-27T00:41:58.497Z,56.96
2017-02-27T00:42:13.052Z,57.83
2017-02-27T00:42:27.675Z,57.54
2017-02-27T00:42:42.273Z,57.25
2017-02-27T00:42:56.855Z,57.25
2017-02-27T00:43:11.469Z,57.35
2017-02-27T00:43:26.048Z,57.06
2017-02-27T00:43:40.716Z,57.92
2017-02-27T00:43:55.245Z,57.64
2017-02-27T00:44:09.900Z,57.25
2017-02-27T00:44:24.562Z,57.35
2017-02-27T00:44:39.064Z,57.25
2017-02-27T00:44:53.636Z,57.15
2017-02-27T00:45:08.243Z,57.25
2017-02-27T00:45:22.863Z,57.15
2017-02-27T00:45:37.421Z,57.35
2017-02-27T00:45:52.035Z,57.25
2017-02-27T00:46:06.609Z,57.15
2017-02-27T00:46:21.176Z,56.96
2017-02-27T00:46:35.949Z,56.96
2017-02-27T00:46:50.548Z,56.96
2017-02-27T00:47:05.092Z,57.25
2017-02-27T00:47:19.638Z,57.06
2017-02-27T00:47:34.219Z,56.96
2017-02-27T00:47:48.865Z,56.77
2017-02-27T00:48:03.438Z,56.67
2017-02-27T00:48:17.993Z,56.87
2017-02-27T00:48:32.793Z,57.15
2017-02-27T00:48:47.342Z,56.96
2017-02-27T00:49:01.959Z,57.25
2017-02-27T00:49:16.537Z,56.96
2017-02-27T00:49:31.085Z,56.77
2017-02-27T00:49:45.703Z,56.67
2017-02-27T00:50:00.338Z,56.67
2017-02-27T00:50:14.936Z,57.06
2017-02-27T00:50:29.517Z,56.87
2017-02-27T00:50:44.069Z,57.15
2017-02-27T00:50:58.658Z,56.96
2017-02-27T00:51:13.220Z,57.06
2017-02-27T00:51:27.819Z,57.64
2017-02-27T00:51:42.435Z,57.83
2017-02-27T00:51:57.041Z,56.96
2017-02-27T00:52:11.583Z,57.25
2017-02-27T00:52:26.137Z,57.54
2017-02-27T00:52:40.683Z,57.35
2017-02-27T00:52:55.307Z,57.15
2017-02-27T00:53:09.869Z,57.06
2017-02-27T00:53:24.484Z,57.06
2017-02-27T00:53:39.143Z,56.67
2017-02-27T00:53:53.737Z,56.67
2017-02-27T00:54:08.308Z,57.06
2017-02-27T00:54:22.879Z,56.87
2017-02-27T00:54:37.521Z,56.77
2017-02-27T00:54:52.057Z,56.48
2017-02-27T00:55:06.639Z,56.67
2017-02-27T00:55:21.280Z,57.06
2017-02-27T00:55:35.871Z,56.77
2017-02-27T00:55:50.457Z,56.96
2017-02-27T00:56:05.016Z,56.96
2017-02-27T00:56:19.587Z,56.58
2017-02-27T00:56:34.131Z,56.67
2017-02-27T00:56:48.638Z,56.67
2017-02-27T00:57:03.251Z,56.96
2017-02-27T00:57:17.803Z,56.67
2017-02-27T00:57:32.469Z,56.38
2017-02-27T00:57:47.014Z,56.58
2017-02-27T00:58:01.569Z,56.48
2017-02-27T00:58:16.113Z,56.7
2017-02-27T00:58:30.698Z,56.6
2017-02-27T00:58:45.239Z,56.7
2017-02-27T00:58:59.806Z,56.99
2017-02-27T00:59:14.412Z,56.9
2017-02-27T00:59:28.985Z,56.7
2017-02-27T00:59:43.525Z,56.87
2017-02-27T00:59:58.126Z,56.96
2017-02-27T01:00:12.749Z,56.9
2017-02-27T01:00:27.358Z,56.8
2017-02-27T01:00:41.947Z,56.7
2017-02-27T01:00:56.506Z,56.8
2017-02-27T01:01:11.057Z,56.7
2017-02-27T01:01:25.660Z,56.8
2017-02-27T01:01:40.255Z,56.77
2017-02-27T01:01:54.811Z,56.9
2017-02-27T01:02:09.393Z,56.96
2017-02-27T01:02:23.992Z,56.9
2017-02-27T01:02:38.598Z,57.06
2017-02-27T01:02:53.169Z,57.18
2017-02-27T01:03:07.758Z,57.18
2017-02-27T01:03:22.365Z,57.15
2017-02-27T01:03:36.954Z,57.15
2017-02-27T01:03:51.679Z,57.28
2017-02-27T01:04:06.176Z,57.28
2017-02-27T01:04:20.751Z,57.09
2017-02-27T01:04:35.325Z,57.18
2017-02-27T01:04:49.940Z,57.15
2017-02-27T01:05:04.562Z,57.06
2017-02-27T01:05:19.112Z,57.09
2017-02-27T01:05:33.736Z,56.96
2017-02-27T01:05:48.243Z,57.28
2017-02-27T01:06:02.783Z,57.18
2017-02-27T01:06:17.355Z,56.99
2017-02-27T01:06:31.913Z,57.92
2017-02-27T01:06:46.475Z,57.64
2017-02-27T01:07:01.044Z,57.92
2017-02-27T01:07:15.635Z,57.25
2017-02-27T01:07:30.190Z,57.57
2017-02-27T01:07:44.772Z,57.54
2017-02-27T01:07:59.347Z,57.57
2017-02-27T01:08:13.933Z,57.67
2017-02-27T01:08:28.553Z,57.92
2017-02-27T01:08:43.135Z,57.86
2017-02-27T01:08:57.740Z,57.73
2017-02-27T01:09:12.278Z,57.73
2017-02-27T01:09:26.887Z,57.64
2017-02-27T01:09:41.494Z,57.73
2017-02-27T01:09:56.064Z,57.83
2017-02-27T01:10:10.644Z,58.02
2017-02-27T01:10:25.216Z,57.92
2017-02-27T01:10:39.769Z,57.92
2017-02-27T01:10:54.374Z,57.92
2017-02-27T01:11:08.926Z,58.12
2017-02-27T01:11:23.461Z,58.5
2017-02-27T01:11:38.061Z,58.4
2017-02-27T01:11:52.716Z,58.22
2017-02-27T01:12:07.353Z,58.15
2017-02-27T01:12:21.965Z,58.31
2017-02-27T01:12:36.510Z,58.02
2017-02-27T01:12:51.075Z,57.92
2017-02-27T01:13:05.693Z,57.92
2017-02-27T01:13:20.343Z,57.83
2017-02-27T01:13:34.871Z,57.92
2017-02-27T01:13:49.438Z,58.22
2017-02-27T01:14:04.040Z,57.92
2017-02-27T01:14:18.640Z,58.12
2017-02-27T01:14:33.220Z,58.24
2017-02-27T01:14:47.797Z,58.05
2017-02-27T01:15:02.375Z,57.83
2017-02-27T01:15:17.119Z,58.05
2017-02-27T01:15:31.722Z,57.86
2017-02-27T01:15:46.306Z,57.95
2017-02-27T01:16:00.873Z,57.86
2017-02-27T01:16:15.462Z,57.95
2017-02-27T01:16:30.074Z,57.95
2017-02-27T01:16:44.640Z,57.95
2017-02-27T01:16:59.139Z,58.15
2017-02-27T01:17:13.626Z,58.34
2017-02-27T01:17:28.197Z,59.11
2017-02-27T01:17:42.739Z,58.63
2017-02-27T01:17:57.310Z,59.01
2017-02-27T01:18:11.887Z,59.4
2017-02-27T01:18:26.510Z,59.4
2017-02-27T01:18:41.038Z,59.2
2017-02-27T01:18:55.787Z,59.2
2017-02-27T01:19:10.364Z,59.27
2017-02-27T01:19:24.929Z,59.17
2017-02-27T01:19:39.533Z,59.01
2017-02-27T01:19:54.111Z,59.11
2017-02-27T01:20:08.665Z,59.01
2017-02-27T01:20:23.250Z,59.11
2017-02-27T01:20:37.845Z,59.01
2017-02-27T01:20:52.430Z,59.11
2017-02-27T01:21:06.991Z,59.2
2017-02-27T01:21:21.620Z,59.4
2017-02-27T01:21:36.218Z,59.11
2017-02-27T01:21:50.776Z,59.4
2017-02-27T01:22:05.332Z,59.37
2017-02-27T01:22:19.933Z,59.49
2017-02-27T01:22:34.483Z,59.4
2017-02-27T01:22:49.304Z,59.27
2017-02-27T01:23:03.877Z,58.92
2017-02-27T01:23:18.469Z,59.11
2017-02-27T01:23:33.112Z,59.01
2017-02-27T01:23:47.721Z,59.01
2017-02-27T01:24:02.288Z,59.4
2017-02-27T01:24:16.865Z,59.2
2017-02-27T01:24:31.495Z,59.59
2017-02-27T01:24:46.110Z,59.88
2017-02-27T01:25:00.695Z,59.97
2017-02-27T01:25:15.257Z,59.88
2017-02-27T01:25:29.867Z,60.07
2017-02-27T01:25:44.918Z,59.94
2017-02-27T01:25:59.468Z,59.94
2017-02-27T01:26:14.003Z,59.94
2017-02-27T01:26:28.562Z,60.17
2017-02-27T01:26:43.210Z,59.94
2017-02-27T01:26:57.808Z,60.52
2017-02-27T01:27:12.381Z,60.42
2017-02-27T01:27:26.933Z,60.52
2017-02-27T01:27:41.514Z,60.33
2017-02-27T01:27:56.050Z,60.24
2017-02-27T01:28:10.651Z,60.14
2017-02-27T01:28:25.283Z,60.04
2017-02-27T01:28:39.860Z,59.94
2017-02-27T01:28:54.415Z,60.14
2017-02-27T01:29:09.031Z,60.14
2017-02-27T01:29:23.569Z,59.94
2017-02-27T01:29:38.187Z,59.94
2017-02-27T01:29:52.726Z,60.04
2017-02-27T01:30:07.785Z,60.04
2017-02-27T01:30:22.396Z,59.85
2017-02-27T01:30:36.953Z,59.75
2017-02-27T01:30:51.511Z,59.75
2017-02-27T01:31:06.061Z,59.85
2017-02-27T01:31:20.652Z,59.85
2017-02-27T01:31:35.184Z,59.75
2017-02-27T01:31:49.744Z,59.66
2017-02-27T01:32:04.361Z,59.47
2017-02-27T01:32:18.960Z,59.27
2017-02-27T01:32:33.602Z,59.27
2017-02-27T01:32:48.219Z,59.37
2017-02-27T01:33:02.785Z,58.98
2017-02-27T01:33:17.380Z,58.98
2017-02-27T01:33:32.204Z,59.17
2017-02-27T01:33:46.805Z,59.37
2017-02-27T01:34:01.592Z,59.37
2017-02-27T01:34:16.166Z,58.98
2017-02-27T01:34:30.723Z,59.37
2017-02-27T01:34:45.279Z,58.98
2017-02-27T01:48:47.697Z,60.04
2017-02-27T01:52:46.433Z,59.75
2017-02-27T01:53:01.009Z,59.66
2017-02-27T01:53:15.671Z,59.56
2017-02-27T01:53:30.311Z,59.75
2017-02-27T01:53:44.832Z,59.47
2017-02-27T01:53:59.423Z,59.75
2017-02-27T01:54:13.973Z,59.47
2017-02-27T01:54:28.542Z,59.56
2017-02-27T01:54:43.065Z,59.47
2017-02-27T01:54:57.628Z,59.47
2017-02-27T01:55:12.264Z,59.17
2017-02-27T01:55:26.814Z,59.17
2017-02-27T01:55:41.582Z,59.27
2017-02-27T01:55:56.170Z,59.37
2017-02-27T01:56:10.795Z,59.15
2017-02-27T01:56:25.374Z,58.79
2017-02-27T01:56:39.959Z,59.15
2017-02-27T01:56:54.550Z,59.08
2017-02-27T01:57:09.090Z,59.08
2017-02-27T01:57:23.657Z,58.7
2017-02-27T01:57:38.279Z,58.37
2017-02-27T01:57:52.821Z,58.6
2017-02-27T01:58:07.428Z,58.31
2017-02-27T01:58:21.987Z,58.37
2017-02-27T01:58:36.614Z,58.18
2017-02-27T01:58:51.201Z,58.02
2017-02-27T01:59:05.759Z,57.8
2017-02-27T01:59:20.346Z,57.83
2017-02-27T01:59:35.136Z,57.92
2017-02-27T01:59:49.761Z,57.83
2017-02-27T02:00:04.274Z,58.09
2017-02-27T02:00:18.898Z,57.73
2017-02-27T02:00:33.674Z,57.6
2017-02-27T02:00:48.313Z,57.92
2017-02-27T02:01:02.956Z,57.64
2017-02-27T02:01:17.574Z,57.54
2017-02-27T02:01:32.383Z,57.25
2017-02-27T02:01:46.960Z,57.25
2017-02-27T02:02:01.575Z,57.35
2017-02-27T02:02:16.223Z,57.25
2017-02-27T02:02:30.767Z,57.06
2017-02-27T02:02:45.394Z,57.25
2017-02-27T02:03:00.055Z,57.25
2017-02-27T02:03:14.623Z,57.25
2017-02-27T02:03:29.254Z,57.06
2017-02-27T02:03:43.801Z,57.06
2017-02-27T02:03:58.459Z,57.73
2017-02-27T02:04:13.023Z,58.12
2017-02-27T02:04:27.595Z,57.92
2017-02-27T02:04:42.117Z,57.83
2017-02-27T02:04:56.780Z,57.83
2017-02-27T02:05:11.347Z,58.02
2017-02-27T02:05:25.964Z,57.73
2017-02-27T02:05:40.566Z,58.22
2017-02-27T02:05:55.102Z,58.4
2017-02-27T02:06:10.007Z,58.22
2017-02-27T02:06:24.564Z,58.22
2017-02-27T02:06:39.228Z,58.5
2017-02-27T02:06:53.756Z,58.4
2017-02-27T02:07:08.324Z,58.98
2017-02-27T02:07:23.151Z,58.22
2017-02-27T02:07:37.694Z,58.31
2017-02-27T02:07:52.303Z,58.5
2017-02-27T02:08:06.885Z,58.89
2017-02-27T02:08:21.485Z,58.4
2017-02-27T02:08:36.053Z,58.22
2017-02-27T02:08:50.586Z,58.7
2017-02-27T02:09:05.185Z,58.4
2017-02-27T02:09:19.770Z,58.22
2017-02-27T02:09:34.445Z,58.98
2017-02-27T02:09:49.034Z,58.98
2017-02-27T02:10:03.614Z,58.31
2017-02-27T02:10:18.153Z,58.5
2017-02-27T02:10:32.789Z,58.22
2017-02-27T02:10:47.410Z,58.22
2017-02-27T02:11:02.767Z,58.4
2017-02-27T02:11:17.388Z,58.89
2017-02-27T02:11:32.028Z,58.4
2017-02-27T02:11:46.617Z,58.6
2017-02-27T02:12:01.220Z,58.31
2017-02-27T02:12:15.817Z,58.4
2017-02-27T02:12:30.396Z,58.31
2017-02-27T02:12:44.996Z,58.89
2017-02-27T02:12:59.567Z,58.89
2017-02-27T02:13:14.195Z,58.6
2017-02-27T02:13:28.785Z,58.5
2017-02-27T02:13:43.372Z,58.4
2017-02-27T02:13:57.933Z,58.31
2017-02-27T02:14:12.492Z,58.12
2017-02-27T02:14:27.052Z,58.02
2017-02-27T02:14:41.786Z,58.02
2017-02-27T02:14:56.410Z,58.12
2017-02-27T02:15:10.977Z,58.12
2017-02-27T02:15:25.549Z,58.12
2017-02-27T02:15:40.131Z,58.12
2017-02-27T02:15:54.700Z,58.22
2017-02-27T02:16:09.317Z,58.31
2017-02-27T02:16:23.939Z,58.5
2017-02-27T02:16:38.504Z,58.31
2017-02-27T02:16:53.168Z,58.7
2017-02-27T02:17:07.734Z,59.17
2017-02-27T02:17:22.329Z,58.98
2017-02-27T02:17:36.919Z,58.98
2017-02-27T02:17:52.776Z,58.98
2017-02-27T02:18:07.410Z,58.98
2017-02-27T02:18:21.972Z,59.08
2017-02-27T02:18:36.566Z,59.08
2017-02-27T02:18:51.188Z,58.98
2017-02-27T02:19:05.742Z,58.98
2017-02-27T02:19:20.315Z,58.98
2017-02-27T02:19:34.921Z,58.98
2017-02-27T02:19:49.503Z,58.98
2017-02-27T02:20:04.044Z,58.98
2017-02-27T02:20:18.599Z,59.08
2017-02-27T02:20:33.186Z,59.08
2017-02-27T02:20:47.765Z,59.08
2017-02-27T02:21:02.342Z,59.17
2017-02-27T02:21:17.075Z,59.08
2017-02-27T02:21:31.669Z,59.08
2017-02-27T02:21:46.280Z,58.98
2017-02-27T02:22:00.885Z,59.08
2017-02-27T02:22:15.416Z,59.17
2017-02-27T02:22:29.987Z,59.17
2017-02-27T02:22:44.534Z,58.98
2017-02-27T02:22:59.094Z,58.98
2017-02-27T02:23:13.645Z,59.08
2017-02-27T02:23:28.235Z,58.98
2017-02-27T02:23:42.818Z,59.17
2017-02-27T02:23:57.390Z,59.56
2017-02-27T02:24:12.024Z,59.27
2017-02-27T02:24:26.647Z,58.98
2017-02-27T02:24:41.238Z,59.17
2017-02-27T02:24:55.857Z,59.08
2017-02-27T02:25:10.443Z,59.27
2017-02-27T02:25:24.985Z,59.08
2017-02-27T02:25:39.577Z,59.17
2017-02-27T02:25:54.148Z,59.08
2017-02-27T02:26:08.676Z,58.98
2017-02-27T02:26:23.237Z,58.98
2017-02-27T02:26:37.775Z,59.08
2017-02-27T02:26:52.261Z,59.17
2017-02-27T02:27:06.754Z,58.79
2017-02-27T02:27:21.490Z,58.6
2017-02-27T02:27:36.044Z,58.7
2017-02-27T02:27:50.664Z,58.5
2017-02-27T02:28:05.256Z,58.4
2017-02-27T02:28:19.800Z,58.4
2017-02-27T02:28:34.393Z,58.79
2017-02-27T02:28:48.977Z,58.89
2017-02-27T02:29:03.529Z,58.5
2017-02-27T02:29:18.113Z,58.98
2017-02-27T02:29:32.640Z,59.17
2017-02-27T02:29:47.215Z,59.27
2017-02-27T02:30:01.764Z,59.37
2017-02-27T02:30:16.337Z,59.47
2017-02-27T02:30:30.861Z,59.66
2017-02-27T02:30:45.465Z,59.27
2017-02-27T02:31:00.005Z,59.66
2017-02-27T02:31:14.602Z,59.85
2017-02-27T02:31:29.169Z,60.04
2017-02-27T02:31:43.777Z,60.62
2017-02-27T02:31:58.349Z,61.39
2017-02-27T02:32:12.911Z,61.19
2017-02-27T02:32:27.517Z,61.61
2017-02-27T02:32:42.105Z,62
2017-02-27T02:32:56.675Z,62.19
2017-02-27T02:33:11.212Z,62.77
2017-02-27T02:33:25.814Z,63.06
2017-02-27T02:33:40.400Z,63.34
2017-02-27T02:33:55.001Z,63.73
2017-02-27T02:34:09.598Z,63.44
2017-02-27T02:34:24.173Z,63.44
2017-02-27T02:34:38.784Z,63.73
2017-02-27T02:34:53.344Z,63.92
2017-02-27T02:35:07.899Z,64.12
2017-02-27T02:35:22.495Z,64.31
2017-02-27T02:35:37.073Z,64.31
2017-02-27T02:35:51.649Z,64.31
2017-02-27T02:36:06.197Z,64.69
2017-02-27T02:36:20.981Z,64.79
2017-02-27T02:36:35.474Z,64.89
2017-02-27T02:36:50.054Z,65.08
2017-02-27T02:37:04.609Z,65.27
2017-02-27T02:37:19.166Z,65.46
2017-02-27T02:37:33.761Z,65.75
2017-02-27T02:37:48.334Z,65.75
2017-02-27T02:38:02.932Z,66.04
2017-02-27T02:38:17.459Z,66.14
2017-02-27T02:38:32.130Z,66.33
2017-02-27T02:38:46.722Z,66.04
2017-02-27T02:39:01.343Z,66.24
2017-02-27T02:39:15.897Z,66.14
2017-02-27T02:39:30.450Z,66.33
2017-02-27T02:39:45.064Z,66.14
2017-02-27T02:39:59.654Z,66.42
2017-02-27T02:40:14.238Z,66.52
2017-02-27T02:40:28.753Z,66.52
2017-02-27T02:40:43.344Z,66.71
2017-02-27T02:40:57.905Z,67
2017-02-27T02:41:12.487Z,67
2017-02-27T02:41:27.098Z,67
2017-02-27T02:41:41.677Z,67.19
2017-02-27T02:41:56.229Z,66.52
2017-02-27T02:42:10.789Z,66.52
2017-02-27T02:42:25.302Z,66.49
2017-02-27T02:42:39.885Z,66.71
2017-02-27T02:42:54.494Z,66.78
2017-02-27T02:43:09.100Z,66.3
2017-02-27T02:43:23.702Z,66.39
2017-02-27T02:43:38.269Z,66.01
2017-02-27T02:43:52.890Z,65.72
2017-02-27T02:44:07.489Z,65.81
2017-02-27T02:44:22.114Z,65.72
2017-02-27T02:44:36.646Z,65.81
2017-02-27T02:44:51.180Z,65.63
2017-02-27T02:45:05.705Z,65.63
2017-02-27T02:45:20.285Z,65.63
2017-02-27T02:45:34.809Z,65.05
2017-02-27T02:45:49.377Z,65.27
2017-02-27T02:46:03.940Z,65.05
2017-02-27T02:46:18.535Z,65.14
2017-02-27T02:46:33.191Z,65.33
2017-02-27T02:46:47.831Z,65.24
2017-02-27T02:47:02.407Z,65.33
2017-02-27T02:47:16.997Z,65.43
2017-02-27T02:47:31.537Z,65.05
2017-02-27T02:47:46.096Z,64.86
2017-02-27T02:48:00.668Z,64.95
2017-02-27T02:48:15.262Z,65.05
2017-02-27T02:48:29.828Z,65.14
2017-02-27T02:48:44.427Z,65.05
2017-02-27T02:48:59.008Z,64.76
2017-02-27T02:49:13.614Z,64.86
2017-02-27T02:49:28.189Z,65.05
2017-02-27T02:49:42.798Z,64.56
2017-02-27T02:49:57.349Z,64.86
2017-02-27T02:50:11.948Z,64.66
2017-02-27T02:50:27.139Z,65.14
2017-02-27T02:50:41.727Z,64.95
2017-02-27T02:50:56.345Z,64.76
2017-02-27T02:51:10.926Z,64.47
2017-02-27T02:51:25.674Z,64.47
2017-02-27T02:51:40.262Z,64.28
2017-02-27T02:51:54.852Z,64.37
2017-02-27T02:52:09.385Z,64.18
2017-02-27T02:52:23.903Z,64.18
2017-02-27T02:52:38.463Z,64.08
2017-02-27T02:52:53.017Z,63.89
2017-02-27T02:53:07.569Z,63.7
2017-02-27T02:53:22.168Z,63.28
2017-02-27T02:53:36.706Z,63.7
2017-02-27T02:53:51.281Z,63.41
2017-02-27T02:54:05.868Z,63.12
2017-02-27T02:54:20.459Z,63.09
2017-02-27T02:54:35.047Z,62.93
2017-02-27T02:54:49.605Z,62.61
2017-02-27T02:55:04.190Z,62.99
2017-02-27T02:55:18.776Z,63.28
2017-02-27T02:55:33.399Z,62.61
2017-02-27T02:55:47.901Z,62.41
2017-02-27T02:56:02.404Z,62.61
2017-02-27T02:56:16.988Z,62.61
2017-02-27T02:56:31.591Z,62.61
2017-02-27T02:56:46.187Z,62.23
2017-02-27T02:57:00.762Z,62.13
2017-02-27T02:57:15.267Z,61.84
2017-02-27T02:57:29.920Z,61.84
2017-02-27T02:57:44.522Z,62.13
2017-02-27T02:57:59.149Z,62.03
2017-02-27T02:58:13.771Z,61.74
2017-02-27T02:58:28.365Z,61.65
2017-02-27T02:58:42.949Z,61.46
2017-02-27T02:58:57.525Z,61.46
2017-02-27T02:59:12.097Z,61.36
2017-02-27T02:59:26.638Z,61.16
2017-02-27T02:59:41.173Z,61.36
2017-02-27T02:59:55.739Z,61.07
2017-02-27T03:00:10.362Z,61.26
2017-02-27T03:00:24.898Z,60.88
2017-02-27T03:00:39.517Z,60.88
2017-02-27T03:00:54.085Z,60.69
2017-02-27T03:01:08.650Z,60.88
2017-02-27T03:01:23.235Z,60.59
2017-02-27T03:01:37.784Z,60.69
2017-02-27T03:01:52.321Z,60.78
2017-02-27T03:02:06.907Z,60.78
2017-02-27T03:02:21.569Z,60.59
2017-02-27T03:02:36.182Z,60.49
2017-02-27T03:02:50.774Z,60.49
2017-02-27T03:03:05.333Z,60.78
2017-02-27T03:03:19.947Z,60.78
2017-02-27T03:03:34.527Z,60.39
2017-02-27T03:03:49.120Z,60.59
2017-02-27T03:04:03.712Z,60.39
2017-02-27T03:04:18.231Z,60.49
2017-02-27T03:04:32.767Z,60.3
2017-02-27T03:04:47.313Z,60.59
2017-02-27T03:05:01.972Z,60.01
2017-02-27T03:05:16.573Z,60.01
2017-02-27T03:05:31.168Z,60.01
2017-02-27T03:05:45.746Z,59.63
2017-02-27T03:06:00.310Z,59.72
2017-02-27T03:06:14.925Z,59.63
2017-02-27T03:06:29.773Z,59.53
2017-02-27T03:06:44.373Z,59.63
2017-02-27T03:06:58.893Z,59.82
2017-02-27T03:07:13.493Z,59.53
2017-02-27T03:07:28.043Z,59.82
2017-02-27T03:07:42.571Z,59.34
2017-02-27T03:07:57.173Z,59.72
2017-02-27T03:08:11.751Z,59.82
2017-02-27T03:08:26.335Z,59.44
2017-02-27T03:08:40.837Z,59.63
2017-02-27T03:08:55.417Z,59.63
2017-02-27T03:09:10.188Z,59.53
2017-02-27T03:09:24.726Z,59.34
2017-02-27T03:09:39.330Z,59.24
2017-02-27T03:09:53.866Z,59.15
2017-02-27T03:10:08.408Z,58.95
2017-02-27T03:10:23.048Z,58.86
2017-02-27T03:10:37.600Z,59.15
2017-02-27T03:10:52.135Z,58.95
2017-02-27T03:11:06.781Z,58.67
2017-02-27T03:11:21.344Z,58.57
2017-02-27T03:11:35.883Z,58.47
2017-02-27T03:11:50.470Z,58.95
2017-02-27T03:12:05.071Z,58.67
2017-02-27T03:12:19.637Z,58.47
2017-02-27T03:12:34.243Z,58.47
2017-02-27T03:12:48.844Z,58.37
2017-02-27T03:13:03.417Z,58.28
2017-02-27T03:13:17.998Z,57.9
2017-02-27T03:13:32.564Z,58.09
2017-02-27T03:13:47.091Z,57.7
2017-02-27T03:14:01.679Z,57.8
2017-02-27T03:14:16.246Z,57.9
2017-02-27T03:14:30.841Z,57.99
2017-02-27T03:14:45.376Z,57.9
2017-02-27T03:14:59.905Z,57.9
2017-02-27T03:15:14.438Z,57.9
2017-02-27T03:15:29.070Z,57.8
2017-02-27T03:15:43.695Z,57.8
2017-02-27T03:15:58.269Z,57.8
2017-02-27T03:16:12.883Z,57.9
2017-02-27T03:16:27.402Z,57.99
2017-02-27T03:16:41.969Z,58.18
2017-02-27T03:16:56.530Z,57.9
2017-02-27T03:17:11.124Z,57.9
2017-02-27T03:17:25.692Z,57.9
2017-02-27T03:17:40.282Z,57.9
2017-02-27T03:17:54.872Z,57.9
2017-02-27T03:18:09.388Z,57.9
2017-02-27T03:18:23.941Z,57.8
2017-02-27T03:18:38.538Z,57.99
2017-02-27T03:18:53.074Z,57.99
2017-02-27T03:19:07.652Z,57.99
2017-02-27T03:19:22.236Z,58.09
2017-02-27T03:19:36.832Z,58.28
2017-02-27T03:19:51.437Z,58.09
2017-02-27T03:20:06.117Z,58.09
2017-02-27T03:20:20.656Z,57.99
2017-02-27T03:20:35.234Z,58.06
2017-02-27T03:20:49.816Z,58.18
2017-02-27T03:21:04.493Z,57.97
2017-02-27T03:21:19.108Z,58.06
2017-02-27T03:21:33.685Z,57.97
2017-02-27T03:21:48.523Z,58.18
2017-02-27T03:22:03.101Z,57.68
2017-02-27T03:22:17.696Z,57.9
2017-02-27T03:22:32.239Z,57.9
2017-02-27T03:22:46.770Z,57.99
2017-02-27T03:23:01.338Z,57.7
2017-02-27T03:23:15.934Z,57.7
2017-02-27T03:23:30.490Z,57.99
2017-02-27T03:23:45.115Z,57.9
2017-02-27T03:23:59.644Z,57.7
2017-02-27T03:24:14.259Z,57.9
2017-02-27T03:24:28.786Z,57.9
2017-02-27T03:24:43.315Z,57.99
2017-02-27T03:24:57.873Z,57.9
2017-02-27T03:25:12.404Z,57.8
2017-02-27T03:25:26.961Z,58.18
2017-02-27T03:25:41.443Z,57.99
2017-02-27T03:25:55.980Z,58.09
2017-02-27T03:26:10.595Z,58.09
2017-02-27T03:26:25.223Z,57.9
2017-02-27T03:26:39.810Z,57.9